sensor_id;sensor_type;location;lat;lon;timestamp;temperature;humidity
10905;DHT22;5505;51.450;9.254;2023-08-08T00:02:05;11.60;99.90
10905;DHT22;5505;51.450;9.254;2023-08-08T00:04:52;13.00;99.90
10905;DHT22;5505;51.450;9.254;2023-08-08T00:07:38;11.70;99.90
10905;DHT22;5505;51.450;9.254;2023-08-08T00:10:25;11.70;99.90
10905;DHT22;5505;51.450;9.254;2023-08-08T00:13:12;11.70;99.90
10905;DHT22;5505;51.450;9.254;2023-08-08T00:15:59;11.70;99.90
10905;DHT22;5505;51.450;9.254;2023-08-08T00:18:47;11.70;99.90
10905;DHT22;5505;51.450;9.254;2023-08-08T00:21:35;11.70;99.90
10905;DHT22;5505;51.450;9.254;2023-08-08T00:24:22;11.70;99.90
10905;DHT22;5505;51.450;9.254;2023-08-08T00:27:08;11.70;99.90
10905;DHT22;5505;51.450;9.254;2023-08-08T00:29:55;11.70;99.90
10905;DHT22;5505;51.450;9.254;2023-08-08T00:32:42;11.70;99.90
10905;DHT22;5505;51.450;9.254;2023-08-08T00:35:30;11.70;99.90
10905;DHT22;5505;51.450;9.254;2023-08-08T00:38:17;11.70;99.90
10905;DHT22;5505;51.450;9.254;2023-08-08T00:41:04;11.70;99.90
10905;DHT22;5505;51.450;9.254;2023-08-08T00:43:51;12.60;99.90
10905;DHT22;5505;51.450;9.254;2023-08-08T00:46:37;12.10;99.90
10905;DHT22;5505;51.450;9.254;2023-08-08T00:49:24;11.20;99.90
10905;DHT22;5505;51.450;9.254;2023-08-08T00:52:13;11.80;99.90
10905;DHT22;5505;51.450;9.254;2023-08-08T00:55:00;11.80;99.90
10905;DHT22;5505;51.450;9.254;2023-08-08T00:57:47;11.80;99.90
10905;DHT22;5505;51.450;9.254;2023-08-08T01:00:34;11.80;99.90
10905;DHT22;5505;51.450;9.254;2023-08-08T01:03:20;11.90;99.90
10905;DHT22;5505;51.450;9.254;2023-08-08T01:06:13;11.90;99.90
10905;DHT22;5505;51.450;9.254;2023-08-08T01:09:04;11.90;99.90
10905;DHT22;5505;51.450;9.254;2023-08-08T01:11:56;11.90;99.90
10905;DHT22;5505;51.450;9.254;2023-08-08T01:14:43;11.90;99.90
10905;DHT22;5505;51.450;9.254;2023-08-08T01:17:30;11.90;99.90
10905;DHT22;5505;51.450;9.254;2023-08-08T01:20:18;12.00;99.90
10905;DHT22;5505;51.450;9.254;2023-08-08T01:23:11;11.90;99.90
10905;DHT22;5505;51.450;9.254;2023-08-08T01:26:01;12.00;99.90
10905;DHT22;5505;51.450;9.254;2023-08-08T01:28:48;12.00;99.90
10905;DHT22;5505;51.450;9.254;2023-08-08T01:31:38;12.00;99.90
10905;DHT22;5505;51.450;9.254;2023-08-08T01:34:25;12.60;99.90
10905;DHT22;5505;51.450;9.254;2023-08-08T01:37:16;12.40;99.90
10905;DHT22;5505;51.450;9.254;2023-08-08T01:40:05;12.00;99.90
10905;DHT22;5505;51.450;9.254;2023-08-08T01:42:54;11.70;99.90
10905;DHT22;5505;51.450;9.254;2023-08-08T01:45:42;12.10;99.90
10905;DHT22;5505;51.450;9.254;2023-08-08T01:48:30;12.10;99.90
10905;DHT22;5505;51.450;9.254;2023-08-08T01:51:16;12.10;99.90
10905;DHT22;5505;51.450;9.254;2023-08-08T01:54:03;12.10;99.90
10905;DHT22;5505;51.450;9.254;2023-08-08T01:56:50;12.20;99.90
10905;DHT22;5505;51.450;9.254;2023-08-08T01:59:38;12.30;99.90
10905;DHT22;5505;51.450;9.254;2023-08-08T02:02:25;12.30;99.90
10905;DHT22;5505;51.450;9.254;2023-08-08T02:05:12;12.40;99.90
10905;DHT22;5505;51.450;9.254;2023-08-08T02:07:59;12.40;99.90
10905;DHT22;5505;51.450;9.254;2023-08-08T02:10:46;12.40;99.90
10905;DHT22;5505;51.450;9.254;2023-08-08T02:13:32;12.40;99.90
10905;DHT22;5505;51.450;9.254;2023-08-08T02:16:20;12.40;99.90
10905;DHT22;5505;51.450;9.254;2023-08-08T02:19:07;12.40;99.90
10905;DHT22;5505;51.450;9.254;2023-08-08T02:21:54;12.40;99.90
10905;DHT22;5505;51.450;9.254;2023-08-08T02:24:41;12.40;99.90
10905;DHT22;5505;51.450;9.254;2023-08-08T02:27:27;12.40;99.90
10905;DHT22;5505;51.450;9.254;2023-08-08T02:30:14;12.40;99.90
10905;DHT22;5505;51.450;9.254;2023-08-08T02:33:02;12.40;99.90
10905;DHT22;5505;51.450;9.254;2023-08-08T02:35:49;12.40;99.90
10905;DHT22;5505;51.450;9.254;2023-08-08T02:38:36;12.30;99.90
10905;DHT22;5505;51.450;9.254;2023-08-08T02:41:23;12.30;99.90
10905;DHT22;5505;51.450;9.254;2023-08-08T02:44:10;12.30;99.90
10905;DHT22;5505;51.450;9.254;2023-08-08T02:46:57;12.30;99.90
10905;DHT22;5505;51.450;9.254;2023-08-08T02:49:45;12.30;99.90
10905;DHT22;5505;51.450;9.254;2023-08-08T02:52:31;14.70;99.90
10905;DHT22;5505;51.450;9.254;2023-08-08T02:55:18;12.20;99.90
10905;DHT22;5505;51.450;9.254;2023-08-08T02:58:05;12.70;99.90
10905;DHT22;5505;51.450;9.254;2023-08-08T03:00:52;13.20;99.90
10905;DHT22;5505;51.450;9.254;2023-08-08T03:03:39;12.00;99.90
10905;DHT22;5505;51.450;9.254;2023-08-08T03:06:27;12.00;99.90
10905;DHT22;5505;51.450;9.254;2023-08-08T03:09:14;12.00;99.90
10905;DHT22;5505;51.450;9.254;2023-08-08T03:12:00;11.90;99.90
10905;DHT22;5505;51.450;9.254;2023-08-08T03:14:47;11.90;99.90
10905;DHT22;5505;51.450;9.254;2023-08-08T03:17:34;11.80;99.90
10905;DHT22;5505;51.450;9.254;2023-08-08T03:20:21;12.20;99.90
10905;DHT22;5505;51.450;9.254;2023-08-08T03:23:09;11.80;99.90
10905;DHT22;5505;51.450;9.254;2023-08-08T03:25:56;11.80;99.90
10905;DHT22;5505;51.450;9.254;2023-08-08T03:28:43;11.70;99.90
10905;DHT22;5505;51.450;9.254;2023-08-08T03:31:29;11.70;99.90
10905;DHT22;5505;51.450;9.254;2023-08-08T03:34:16;12.90;99.90
10905;DHT22;5505;51.450;9.254;2023-08-08T03:37:03;13.10;99.90
10905;DHT22;5505;51.450;9.254;2023-08-08T03:39:52;11.60;99.90
10905;DHT22;5505;51.450;9.254;2023-08-08T03:42:38;11.60;99.90
10905;DHT22;5505;51.450;9.254;2023-08-08T03:45:25;11.60;99.90
10905;DHT22;5505;51.450;9.254;2023-08-08T03:48:12;11.60;99.90
10905;DHT22;5505;51.450;9.254;2023-08-08T03:50:59;11.50;99.90
10905;DHT22;5505;51.450;9.254;2023-08-08T03:53:46;11.50;99.90
10905;DHT22;5505;51.450;9.254;2023-08-08T03:56:34;11.60;99.90
10905;DHT22;5505;51.450;9.254;2023-08-08T03:59:20;11.50;99.90
10905;DHT22;5505;51.450;9.254;2023-08-08T04:02:07;11.50;99.90
10905;DHT22;5505;51.450;9.254;2023-08-08T04:04:54;11.40;99.90
10905;DHT22;5505;51.450;9.254;2023-08-08T04:07:41;11.50;99.90
10905;DHT22;5505;51.450;9.254;2023-08-08T04:10:28;11.40;99.90
10905;DHT22;5505;51.450;9.254;2023-08-08T04:13:17;11.30;99.90
10905;DHT22;5505;51.450;9.254;2023-08-08T04:16:04;11.30;99.90
10905;DHT22;5505;51.450;9.254;2023-08-08T04:18:50;11.40;99.90
10905;DHT22;5505;51.450;9.254;2023-08-08T04:21:37;11.40;99.90
10905;DHT22;5505;51.450;9.254;2023-08-08T04:24:25;11.30;99.90
10905;DHT22;5505;51.450;9.254;2023-08-08T04:27:12;11.30;99.90
10905;DHT22;5505;51.450;9.254;2023-08-08T04:30:00;13.20;99.90
10905;DHT22;5505;51.450;9.254;2023-08-08T04:32:46;11.50;99.90
10905;DHT22;5505;51.450;9.254;2023-08-08T04:35:33;12.00;99.90
10905;DHT22;5505;51.450;9.254;2023-08-08T04:38:20;11.40;99.90
10905;DHT22;5505;51.450;9.254;2023-08-08T04:41:07;11.40;99.90
10905;DHT22;5505;51.450;9.254;2023-08-08T04:43:54;11.30;99.90
10905;DHT22;5505;51.450;9.254;2023-08-08T04:46:42;11.30;99.90
10905;DHT22;5505;51.450;9.254;2023-08-08T04:49:28;11.20;99.90
10905;DHT22;5505;51.450;9.254;2023-08-08T04:52:15;11.40;99.90
10905;DHT22;5505;51.450;9.254;2023-08-08T04:55:02;11.50;99.90
10905;DHT22;5505;51.450;9.254;2023-08-08T04:57:49;11.50;99.90
10905;DHT22;5505;51.450;9.254;2023-08-08T05:00:36;11.50;99.90
10905;DHT22;5505;51.450;9.254;2023-08-08T05:03:24;11.60;99.90
10905;DHT22;5505;51.450;9.254;2023-08-08T05:06:11;11.60;99.90
10905;DHT22;5505;51.450;9.254;2023-08-08T05:08:58;11.60;99.90
10905;DHT22;5505;51.450;9.254;2023-08-08T05:11:45;11.60;99.90
10905;DHT22;5505;51.450;9.254;2023-08-08T05:14:32;11.60;99.90
10905;DHT22;5505;51.450;9.254;2023-08-08T05:17:19;11.70;99.90
10905;DHT22;5505;51.450;9.254;2023-08-08T05:20:08;11.70;99.90
10905;DHT22;5505;51.450;9.254;2023-08-08T05:22:55;11.70;99.90
10905;DHT22;5505;51.450;9.254;2023-08-08T05:25:42;11.80;99.90
10905;DHT22;5505;51.450;9.254;2023-08-08T05:28:29;11.90;99.90
10905;DHT22;5505;51.450;9.254;2023-08-08T05:31:15;11.90;99.90
10905;DHT22;5505;51.450;9.254;2023-08-08T05:34:02;11.90;99.90
10905;DHT22;5505;51.450;9.254;2023-08-08T05:36:50;11.90;99.90
10905;DHT22;5505;51.450;9.254;2023-08-08T05:39:37;12.00;99.90
10905;DHT22;5505;51.450;9.254;2023-08-08T05:42:24;12.60;99.90
10905;DHT22;5505;51.450;9.254;2023-08-08T05:45:11;12.00;99.90
10905;DHT22;5505;51.450;9.254;2023-08-08T05:47:57;12.00;99.90
10905;DHT22;5505;51.450;9.254;2023-08-08T05:50:45;12.10;99.90
10905;DHT22;5505;51.450;9.254;2023-08-08T05:53:33;12.00;99.90
10905;DHT22;5505;51.450;9.254;2023-08-08T05:56:20;12.10;99.90
10905;DHT22;5505;51.450;9.254;2023-08-08T05:59:07;12.00;99.90
10905;DHT22;5505;51.450;9.254;2023-08-08T06:01:54;12.00;99.90
10905;DHT22;5505;51.450;9.254;2023-08-08T06:04:41;12.10;99.90
10905;DHT22;5505;51.450;9.254;2023-08-08T06:07:27;12.10;99.90
10905;DHT22;5505;51.450;9.254;2023-08-08T06:10:16;12.20;99.90
10905;DHT22;5505;51.450;9.254;2023-08-08T06:13:02;14.20;99.90
10905;DHT22;5505;51.450;9.254;2023-08-08T06:15:49;12.20;99.90
10905;DHT22;5505;51.450;9.254;2023-08-08T06:18:36;12.20;99.90
10905;DHT22;5505;51.450;9.254;2023-08-08T06:21:23;12.20;99.90
10905;DHT22;5505;51.450;9.254;2023-08-08T06:24:10;12.20;99.90
10905;DHT22;5505;51.450;9.254;2023-08-08T06:26:58;12.30;99.90
10905;DHT22;5505;51.450;9.254;2023-08-08T06:29:45;12.30;99.90
10905;DHT22;5505;51.450;9.254;2023-08-08T06:32:32;13.10;99.90
10905;DHT22;5505;51.450;9.254;2023-08-08T06:35:18;12.30;99.90
10905;DHT22;5505;51.450;9.254;2023-08-08T06:38:05;12.40;99.90
10905;DHT22;5505;51.450;9.254;2023-08-08T06:40:52;12.50;99.90
10905;DHT22;5505;51.450;9.254;2023-08-08T06:43:40;13.20;99.90
10905;DHT22;5505;51.450;9.254;2023-08-08T06:46:27;12.70;99.90
10905;DHT22;5505;51.450;9.254;2023-08-08T06:49:13;12.90;99.90
10905;DHT22;5505;51.450;9.254;2023-08-08T06:52:00;12.90;99.90
10905;DHT22;5505;51.450;9.254;2023-08-08T06:54:47;13.00;99.90
10905;DHT22;5505;51.450;9.254;2023-08-08T06:57:34;13.00;99.90
10905;DHT22;5505;51.450;9.254;2023-08-08T07:00:22;13.00;99.90
10905;DHT22;5505;51.450;9.254;2023-08-08T07:03:09;13.00;99.90
10905;DHT22;5505;51.450;9.254;2023-08-08T07:05:56;13.00;99.90
10905;DHT22;5505;51.450;9.254;2023-08-08T07:08:43;12.90;99.90
10905;DHT22;5505;51.450;9.254;2023-08-08T07:11:30;12.90;99.90
10905;DHT22;5505;51.450;9.254;2023-08-08T07:14:16;13.70;99.90
10905;DHT22;5505;51.450;9.254;2023-08-08T07:17:05;13.10;99.90
10905;DHT22;5505;51.450;9.254;2023-08-08T07:19:52;13.30;99.90
10905;DHT22;5505;51.450;9.254;2023-08-08T07:22:38;13.40;99.90
10905;DHT22;5505;51.450;9.254;2023-08-08T07:25:25;13.40;99.90
10905;DHT22;5505;51.450;9.254;2023-08-08T07:28:12;13.40;99.90
10905;DHT22;5505;51.450;9.254;2023-08-08T07:30:59;13.40;99.90
10905;DHT22;5505;51.450;9.254;2023-08-08T07:33:48;13.30;99.90
10905;DHT22;5505;51.450;9.254;2023-08-08T07:36:34;13.20;99.90
10905;DHT22;5505;51.450;9.254;2023-08-08T07:39:21;13.50;99.90
10905;DHT22;5505;51.450;9.254;2023-08-08T07:42:08;13.20;99.90
10905;DHT22;5505;51.450;9.254;2023-08-08T07:44:55;13.30;99.90
10905;DHT22;5505;51.450;9.254;2023-08-08T07:47:41;13.30;99.90
10905;DHT22;5505;51.450;9.254;2023-08-08T07:50:29;13.30;99.90
10905;DHT22;5505;51.450;9.254;2023-08-08T07:53:16;13.40;99.90
10905;DHT22;5505;51.450;9.254;2023-08-08T07:56:03;13.90;99.90
10905;DHT22;5505;51.450;9.254;2023-08-08T07:58:50;13.50;99.90
10905;DHT22;5505;51.450;9.254;2023-08-08T08:01:37;13.60;99.90
10905;DHT22;5505;51.450;9.254;2023-08-08T08:04:23;13.60;99.90
10905;DHT22;5505;51.450;9.254;2023-08-08T08:07:11;13.60;99.90
10905;DHT22;5505;51.450;9.254;2023-08-08T08:09:58;13.60;99.90
10905;DHT22;5505;51.450;9.254;2023-08-08T08:12:45;13.80;99.90
10905;DHT22;5505;51.450;9.254;2023-08-08T08:15:32;13.80;99.90
10905;DHT22;5505;51.450;9.254;2023-08-08T08:18:18;13.90;99.90
10905;DHT22;5505;51.450;9.254;2023-08-08T08:21:05;14.00;99.90
10905;DHT22;5505;51.450;9.254;2023-08-08T08:23:53;14.10;99.90
10905;DHT22;5505;51.450;9.254;2023-08-08T08:26:40;14.20;99.90
10905;DHT22;5505;51.450;9.254;2023-08-08T08:29:27;14.40;99.90
10905;DHT22;5505;51.450;9.254;2023-08-08T08:32:14;14.50;99.90
10905;DHT22;5505;51.450;9.254;2023-08-08T08:35:01;14.60;99.90
10905;DHT22;5505;51.450;9.254;2023-08-08T08:37:49;15.50;99.90
10905;DHT22;5505;51.450;9.254;2023-08-08T08:40:39;14.90;99.90
10905;DHT22;5505;51.450;9.254;2023-08-08T08:43:27;15.20;99.90
10905;DHT22;5505;51.450;9.254;2023-08-08T08:46:14;15.20;99.90
10905;DHT22;5505;51.450;9.254;2023-08-08T08:49:05;15.40;99.90
10905;DHT22;5505;51.450;9.254;2023-08-08T08:51:54;15.50;99.90
10905;DHT22;5505;51.450;9.254;2023-08-08T08:54:41;15.40;99.90
10905;DHT22;5505;51.450;9.254;2023-08-08T08:57:29;16.50;99.90
10905;DHT22;5505;51.450;9.254;2023-08-08T09:00:18;15.40;99.90
10905;DHT22;5505;51.450;9.254;2023-08-08T09:03:05;15.50;99.90
10905;DHT22;5505;51.450;9.254;2023-08-08T09:05:52;15.60;99.90
10905;DHT22;5505;51.450;9.254;2023-08-08T09:08:40;15.50;99.90
10905;DHT22;5505;51.450;9.254;2023-08-08T09:11:27;15.50;99.90
10905;DHT22;5505;51.450;9.254;2023-08-08T09:14:21;15.60;99.90
10905;DHT22;5505;51.450;9.254;2023-08-08T09:17:11;16.00;99.90
10905;DHT22;5505;51.450;9.254;2023-08-08T09:19:58;15.90;99.90
10905;DHT22;5505;51.450;9.254;2023-08-08T09:22:45;16.00;99.90
10905;DHT22;5505;51.450;9.254;2023-08-08T09:25:32;15.90;99.90
10905;DHT22;5505;51.450;9.254;2023-08-08T09:28:19;17.20;99.90
10905;DHT22;5505;51.450;9.254;2023-08-08T09:31:07;15.90;99.90
10905;DHT22;5505;51.450;9.254;2023-08-08T09:33:54;16.00;99.90
10905;DHT22;5505;51.450;9.254;2023-08-08T09:36:41;15.90;99.90
10905;DHT22;5505;51.450;9.254;2023-08-08T09:39:28;15.80;99.90
10905;DHT22;5505;51.450;9.254;2023-08-08T09:42:15;15.70;99.90
10905;DHT22;5505;51.450;9.254;2023-08-08T09:45:03;15.70;99.90
10905;DHT22;5505;51.450;9.254;2023-08-08T09:47:52;15.80;99.90
10905;DHT22;5505;51.450;9.254;2023-08-08T09:50:40;16.00;99.90
10905;DHT22;5505;51.450;9.254;2023-08-08T09:53:27;16.80;99.90
10905;DHT22;5505;51.450;9.254;2023-08-08T09:56:15;16.30;99.90
10905;DHT22;5505;51.450;9.254;2023-08-08T09:59:02;16.30;99.90
10905;DHT22;5505;51.450;9.254;2023-08-08T10:01:52;16.30;99.90
10905;DHT22;5505;51.450;9.254;2023-08-08T10:04:41;16.30;99.90
10905;DHT22;5505;51.450;9.254;2023-08-08T10:07:28;16.40;99.90
10905;DHT22;5505;51.450;9.254;2023-08-08T10:10:15;16.30;99.90
10905;DHT22;5505;51.450;9.254;2023-08-08T10:13:05;16.30;99.90
10905;DHT22;5505;51.450;9.254;2023-08-08T10:15:52;16.30;99.90
10905;DHT22;5505;51.450;9.254;2023-08-08T10:18:40;16.40;99.90
10905;DHT22;5505;51.450;9.254;2023-08-08T10:21:33;16.60;99.90
10905;DHT22;5505;51.450;9.254;2023-08-08T10:24:20;16.70;99.90
10905;DHT22;5505;51.450;9.254;2023-08-08T10:27:07;16.90;99.90
10905;DHT22;5505;51.450;9.254;2023-08-08T10:29:54;17.00;99.90
10905;DHT22;5505;51.450;9.254;2023-08-08T10:32:50;17.20;99.90
10905;DHT22;5505;51.450;9.254;2023-08-08T10:35:37;17.10;99.90
10905;DHT22;5505;51.450;9.254;2023-08-08T10:38:26;17.10;99.90
10905;DHT22;5505;51.450;9.254;2023-08-08T10:41:15;17.20;99.90
10905;DHT22;5505;51.450;9.254;2023-08-08T10:44:08;17.20;99.90
10905;DHT22;5505;51.450;9.254;2023-08-08T10:46:55;17.30;99.90
10905;DHT22;5505;51.450;9.254;2023-08-08T10:49:42;17.30;99.90
10905;DHT22;5505;51.450;9.254;2023-08-08T10:52:30;17.40;99.90
10905;DHT22;5505;51.450;9.254;2023-08-08T10:55:23;17.30;99.90
10905;DHT22;5505;51.450;9.254;2023-08-08T10:58:13;17.30;99.90
10905;DHT22;5505;51.450;9.254;2023-08-08T11:01:01;17.20;99.90
10905;DHT22;5505;51.450;9.254;2023-08-08T11:03:50;17.40;99.90
10905;DHT22;5505;51.450;9.254;2023-08-08T11:06:38;17.30;99.90
10905;DHT22;5505;51.450;9.254;2023-08-08T11:09:26;17.60;99.90
10905;DHT22;5505;51.450;9.254;2023-08-08T11:12:17;17.70;99.90
10905;DHT22;5505;51.450;9.254;2023-08-08T11:15:05;17.70;99.90
10905;DHT22;5505;51.450;9.254;2023-08-08T11:17:52;17.70;99.90
10905;DHT22;5505;51.450;9.254;2023-08-08T11:20:40;17.60;99.90
10905;DHT22;5505;51.450;9.254;2023-08-08T11:23:28;17.40;99.90
10905;DHT22;5505;51.450;9.254;2023-08-08T11:26:17;17.40;99.90
10905;DHT22;5505;51.450;9.254;2023-08-08T11:29:06;17.50;99.90
10905;DHT22;5505;51.450;9.254;2023-08-08T11:31:53;17.60;99.90
10905;DHT22;5505;51.450;9.254;2023-08-08T11:34:41;17.70;99.90
10905;DHT22;5505;51.450;9.254;2023-08-08T11:37:28;17.90;99.90
10905;DHT22;5505;51.450;9.254;2023-08-08T11:40:15;18.90;99.90
10905;DHT22;5505;51.450;9.254;2023-08-08T11:43:02;17.90;99.90
10905;DHT22;5505;51.450;9.254;2023-08-08T11:45:52;17.90;99.90
10905;DHT22;5505;51.450;9.254;2023-08-08T11:48:39;17.90;99.90
10905;DHT22;5505;51.450;9.254;2023-08-08T11:51:28;17.90;99.90
10905;DHT22;5505;51.450;9.254;2023-08-08T11:54:14;18.00;99.90
10905;DHT22;5505;51.450;9.254;2023-08-08T11:57:02;18.00;99.90
10905;DHT22;5505;51.450;9.254;2023-08-08T11:59:49;18.00;99.90
10905;DHT22;5505;51.450;9.254;2023-08-08T12:02:38;18.00;99.90
10905;DHT22;5505;51.450;9.254;2023-08-08T12:05:25;17.80;99.90
10905;DHT22;5505;51.450;9.254;2023-08-08T12:08:12;17.70;99.90
10905;DHT22;5505;51.450;9.254;2023-08-08T12:11:01;17.80;99.90
10905;DHT22;5505;51.450;9.254;2023-08-08T12:13:49;17.50;99.90
10905;DHT22;5505;51.450;9.254;2023-08-08T12:16:37;17.40;99.90
10905;DHT22;5505;51.450;9.254;2023-08-08T12:19:26;17.30;99.90
10905;DHT22;5505;51.450;9.254;2023-08-08T12:22:14;17.10;99.90
10905;DHT22;5505;51.450;9.254;2023-08-08T12:25:02;17.40;99.90
10905;DHT22;5505;51.450;9.254;2023-08-08T12:27:49;16.80;99.90
10905;DHT22;5505;51.450;9.254;2023-08-08T12:30:36;18.40;99.90
10905;DHT22;5505;51.450;9.254;2023-08-08T12:33:23;16.50;99.90
10905;DHT22;5505;51.450;9.254;2023-08-08T12:36:11;16.40;99.90
10905;DHT22;5505;51.450;9.254;2023-08-08T12:38:58;16.30;99.90
10905;DHT22;5505;51.450;9.254;2023-08-08T12:41:45;16.10;99.90
10905;DHT22;5505;51.450;9.254;2023-08-08T12:44:32;16.00;99.90
10905;DHT22;5505;51.450;9.254;2023-08-08T12:47:19;15.90;99.90
10905;DHT22;5505;51.450;9.254;2023-08-08T12:50:07;15.80;99.90
10905;DHT22;5505;51.450;9.254;2023-08-08T12:52:55;15.80;99.90
10905;DHT22;5505;51.450;9.254;2023-08-08T12:55:42;15.80;99.90
10905;DHT22;5505;51.450;9.254;2023-08-08T12:58:29;16.80;99.90
10905;DHT22;5505;51.450;9.254;2023-08-08T13:01:16;15.90;99.90
10905;DHT22;5505;51.450;9.254;2023-08-08T13:04:03;15.90;99.90
10905;DHT22;5505;51.450;9.254;2023-08-08T13:06:50;15.80;99.90
10905;DHT22;5505;51.450;9.254;2023-08-08T13:09:38;15.70;99.90
10905;DHT22;5505;51.450;9.254;2023-08-08T13:12:25;15.60;99.90
10905;DHT22;5505;51.450;9.254;2023-08-08T13:15:12;15.40;99.90
10905;DHT22;5505;51.450;9.254;2023-08-08T13:17:59;15.20;99.90
10905;DHT22;5505;51.450;9.254;2023-08-08T13:20:45;15.00;99.90
10905;DHT22;5505;51.450;9.254;2023-08-08T13:23:32;14.80;99.90
10905;DHT22;5505;51.450;9.254;2023-08-08T13:26:21;14.80;99.90
10905;DHT22;5505;51.450;9.254;2023-08-08T13:29:07;14.60;99.90
10905;DHT22;5505;51.450;9.254;2023-08-08T13:31:54;14.60;99.90
10905;DHT22;5505;51.450;9.254;2023-08-08T13:34:41;14.70;99.90
10905;DHT22;5505;51.450;9.254;2023-08-08T13:37:28;14.70;99.90
10905;DHT22;5505;51.450;9.254;2023-08-08T13:40:15;14.80;99.90
10905;DHT22;5505;51.450;9.254;2023-08-08T13:43:03;15.00;99.90
10905;DHT22;5505;51.450;9.254;2023-08-08T13:45:50;15.00;99.90
10905;DHT22;5505;51.450;9.254;2023-08-08T13:48:37;15.00;99.90
10905;DHT22;5505;51.450;9.254;2023-08-08T13:51:24;14.90;99.90
10905;DHT22;5505;51.450;9.254;2023-08-08T13:54:10;15.00;99.90
10905;DHT22;5505;51.450;9.254;2023-08-08T13:56:57;15.00;99.90
10905;DHT22;5505;51.450;9.254;2023-08-08T13:59:45;14.90;99.90
10905;DHT22;5505;51.450;9.254;2023-08-08T14:02:32;14.90;99.90
10905;DHT22;5505;51.450;9.254;2023-08-08T14:05:19;14.90;99.90
10905;DHT22;5505;51.450;9.254;2023-08-08T14:08:05;15.00;99.90
10905;DHT22;5505;51.450;9.254;2023-08-08T14:10:52;15.10;99.90
10905;DHT22;5505;51.450;9.254;2023-08-08T14:13:39;15.40;99.90
10905;DHT22;5505;51.450;9.254;2023-08-08T14:16:27;15.60;99.90
10905;DHT22;5505;51.450;9.254;2023-08-08T14:19:14;15.70;99.90
10905;DHT22;5505;51.450;9.254;2023-08-08T14:22:02;15.90;99.90
10905;DHT22;5505;51.450;9.254;2023-08-08T14:24:49;16.10;99.90
10905;DHT22;5505;51.450;9.254;2023-08-08T14:27:35;16.20;99.90
10905;DHT22;5505;51.450;9.254;2023-08-08T14:30:22;16.30;99.90
10905;DHT22;5505;51.450;9.254;2023-08-08T14:33:12;16.30;99.90
10905;DHT22;5505;51.450;9.254;2023-08-08T14:35:59;16.30;99.90
10905;DHT22;5505;51.450;9.254;2023-08-08T14:38:46;16.50;99.90
10905;DHT22;5505;51.450;9.254;2023-08-08T14:41:33;16.60;99.90
10905;DHT22;5505;51.450;9.254;2023-08-08T14:44:19;16.70;99.90
10905;DHT22;5505;51.450;9.254;2023-08-08T14:47:07;16.70;99.90
10905;DHT22;5505;51.450;9.254;2023-08-08T14:49:55;16.60;99.90
10905;DHT22;5505;51.450;9.254;2023-08-08T14:52:42;16.60;99.90
10905;DHT22;5505;51.450;9.254;2023-08-08T14:55:29;16.50;99.90
10905;DHT22;5505;51.450;9.254;2023-08-08T14:58:15;16.60;99.90
10905;DHT22;5505;51.450;9.254;2023-08-08T15:01:02;16.60;99.90
10905;DHT22;5505;51.450;9.254;2023-08-08T15:03:49;16.70;99.90
10905;DHT22;5505;51.450;9.254;2023-08-08T15:06:37;16.70;99.90
10905;DHT22;5505;51.450;9.254;2023-08-08T15:09:24;16.90;99.90
10905;DHT22;5505;51.450;9.254;2023-08-08T15:12:14;16.90;99.90
10905;DHT22;5505;51.450;9.254;2023-08-08T15:15:01;16.90;99.90
10905;DHT22;5505;51.450;9.254;2023-08-08T15:17:48;16.90;99.90
10905;DHT22;5505;51.450;9.254;2023-08-08T15:20:35;17.00;99.90
10905;DHT22;5505;51.450;9.254;2023-08-08T15:23:24;16.90;99.90
10905;DHT22;5505;51.450;9.254;2023-08-08T15:26:10;16.90;99.90
10905;DHT22;5505;51.450;9.254;2023-08-08T15:28:57;16.90;99.90
10905;DHT22;5505;51.450;9.254;2023-08-08T15:31:44;17.00;99.90
10905;DHT22;5505;51.450;9.254;2023-08-08T15:34:31;17.20;99.90
10905;DHT22;5505;51.450;9.254;2023-08-08T15:37:17;17.40;99.90
10905;DHT22;5505;51.450;9.254;2023-08-08T15:40:07;17.40;99.90
10905;DHT22;5505;51.450;9.254;2023-08-08T15:42:54;17.30;99.90
10905;DHT22;5505;51.450;9.254;2023-08-08T15:45:40;17.50;99.90
10905;DHT22;5505;51.450;9.254;2023-08-08T15:48:27;17.20;99.90
10905;DHT22;5505;51.450;9.254;2023-08-08T15:51:14;17.20;99.90
10905;DHT22;5505;51.450;9.254;2023-08-08T15:54:01;17.70;99.90
10905;DHT22;5505;51.450;9.254;2023-08-08T15:56:51;17.30;99.90
10905;DHT22;5505;51.450;9.254;2023-08-08T15:59:38;17.40;99.90
10905;DHT22;5505;51.450;9.254;2023-08-08T16:02:27;17.40;99.90
10905;DHT22;5505;51.450;9.254;2023-08-08T16:05:15;17.50;99.90
10905;DHT22;5505;51.450;9.254;2023-08-08T16:08:02;17.40;99.90
10905;DHT22;5505;51.450;9.254;2023-08-08T16:10:48;17.20;99.90
10905;DHT22;5505;51.450;9.254;2023-08-08T16:13:36;17.10;99.90
10905;DHT22;5505;51.450;9.254;2023-08-08T16:16:23;17.00;99.90
10905;DHT22;5505;51.450;9.254;2023-08-08T16:19:10;17.00;99.90
10905;DHT22;5505;51.450;9.254;2023-08-08T16:21:57;17.10;99.90
10905;DHT22;5505;51.450;9.254;2023-08-08T16:24:44;17.20;99.90
10905;DHT22;5505;51.450;9.254;2023-08-08T16:27:30;17.20;99.90
10905;DHT22;5505;51.450;9.254;2023-08-08T16:30:19;17.30;99.90
10905;DHT22;5505;51.450;9.254;2023-08-08T16:33:06;17.30;99.90
10905;DHT22;5505;51.450;9.254;2023-08-08T16:35:52;17.20;99.90
10905;DHT22;5505;51.450;9.254;2023-08-08T16:38:39;17.20;99.90
10905;DHT22;5505;51.450;9.254;2023-08-08T16:41:26;17.10;99.90
10905;DHT22;5505;51.450;9.254;2023-08-08T16:44:13;16.90;99.90
10905;DHT22;5505;51.450;9.254;2023-08-08T16:47:01;17.00;99.90
10905;DHT22;5505;51.450;9.254;2023-08-08T16:49:48;17.10;99.90
10905;DHT22;5505;51.450;9.254;2023-08-08T16:52:35;17.30;99.90
10905;DHT22;5505;51.450;9.254;2023-08-08T16:55:22;17.30;99.90
10905;DHT22;5505;51.450;9.254;2023-08-08T16:58:09;16.30;99.90
10905;DHT22;5505;51.450;9.254;2023-08-08T17:00:55;17.40;99.90
10905;DHT22;5505;51.450;9.254;2023-08-08T17:03:45;17.40;99.90
10905;DHT22;5505;51.450;9.254;2023-08-08T17:06:32;17.50;99.90
10905;DHT22;5505;51.450;9.254;2023-08-08T17:09:19;17.50;99.90
10905;DHT22;5505;51.450;9.254;2023-08-08T17:12:08;17.50;99.90
10905;DHT22;5505;51.450;9.254;2023-08-08T17:14:55;17.50;99.90
10905;DHT22;5505;51.450;9.254;2023-08-08T17:17:42;17.50;99.90
10905;DHT22;5505;51.450;9.254;2023-08-08T17:20:30;17.50;99.90
10905;DHT22;5505;51.450;9.254;2023-08-08T17:23:17;17.40;99.90
10905;DHT22;5505;51.450;9.254;2023-08-08T17:26:04;17.30;99.90
10905;DHT22;5505;51.450;9.254;2023-08-08T17:28:51;17.40;99.90
10905;DHT22;5505;51.450;9.254;2023-08-08T17:31:38;17.30;99.90
10905;DHT22;5505;51.450;9.254;2023-08-08T17:34:24;17.40;99.90
10905;DHT22;5505;51.450;9.254;2023-08-08T17:37:12;17.40;99.90
10905;DHT22;5505;51.450;9.254;2023-08-08T17:39:59;17.40;99.90
10905;DHT22;5505;51.450;9.254;2023-08-08T17:42:46;17.30;99.90
10905;DHT22;5505;51.450;9.254;2023-08-08T17:45:34;17.30;99.90
10905;DHT22;5505;51.450;9.254;2023-08-08T17:48:20;17.20;99.90
10905;DHT22;5505;51.450;9.254;2023-08-08T17:51:07;17.30;99.90
10905;DHT22;5505;51.450;9.254;2023-08-08T17:53:55;17.20;99.90